Temp: 4.0°C   Baro: 1036.5mb
  Wind: 0.0mph   Dir: W (273°)
  Rain: 0.0mm (0.0mm/hr)
  Solar: 0W/m2  Hum: 84%

Historic data

Bath Spa Weather Station Historical Data
Daily Summary for December 14, 2019 Units:  Both    English   Metric
Daily Weekly Monthly Yearly Custom
  High: Low: Average:
Temperature: 46.9 °F /  8.3 °C 39.9 °F /  4.4 °C 44.3 °F /  6.8 °C
Dew Point: 43.9 °F /  6.6 °C 35.4 °F /  1.9 °C 38.8 °F /  3.8 °C
Humidity: 94% 67.4% 81%
Wind Speed: 30.7mph /  49.4km/h - 7.7mph /  12.4km/h
Wind Gust: 52mph /  83.7km/h - -
Wind- - WSW
Pressure: 29.35 in /  993.8 hPa 29.07 in /  984.3 hPa -
Precipitation: 0.30 in /  7.62 mm    
Historical Graphs
 
 
Tabular Data for December 14, 2019
Time Temperature Dew Point Pressure Wind Wind Speed Wind Gust Humidity Rainfall Rate (Hourly) solar
00:08 40.9 °F /  4.9 °C 39.1 °F /  3.9 °C 29.07in /  984.3hPa WSW 2mph /  3.2km/h 5mph /  8km/h 93% 0.00in /  0mm 0 W/m2
00:14 40.8 °F /  4.9 °C 39 °F /  3.9 °C 29.07in /  984.3hPa WSW 3.2mph /  5.1km/h 6mph /  9.7km/h 93% 0.00in /  0mm 0 W/m2
00:19 40.6 °F /  4.8 °C 38.8 °F /  3.8 °C 29.07in /  984.3hPa West 1.6mph /  2.6km/h 6mph /  9.7km/h 93% 0.00in /  0mm 0 W/m2
00:24 40.5 °F /  4.7 °C 38.7 °F /  3.7 °C 29.07in /  984.3hPa West 2mph /  3.2km/h 5mph /  8km/h 93% 0.00in /  0mm 0 W/m2
00:29 40.3 °F /  4.6 °C 38.5 °F /  3.6 °C 29.07in /  984.3hPa West 1.2mph /  1.9km/h 5mph /  8km/h 93% 0.00in /  0mm 0 W/m2
00:34 40.2 °F /  4.6 °C 38.4 °F /  3.6 °C 29.07in /  984.3hPa Calm   1mph /  1.6km/h 93% 0.00in /  0mm 0 W/m2
00:39 40.1 °F /  4.5 °C 38.3 °F /  3.5 °C 29.08in /  984.6hPa West 0.5mph /  0.8km/h 3mph /  4.8km/h 93% 0.00in /  0mm 0 W/m2
00:44 39.9 °F /  4.4 °C 38.1 °F /  3.4 °C 29.08in /  984.6hPa West 1.2mph /  1.9km/h 4mph /  6.4km/h 93% 0.00in /  0mm 0 W/m2
00:49 39.9 °F /  4.4 °C 38.1 °F /  3.4 °C 29.08in /  984.6hPa West 0.2mph /  0.3km/h 2mph /  3.2km/h 93% 0.00in /  0mm 0 W/m2
00:54 40 °F /  4.4 °C 38.2 °F /  3.4 °C 29.08in /  984.6hPa West 1.2mph /  1.9km/h 3mph /  4.8km/h 93% 0.00in /  0mm 0 W/m2
00:59 40.1 °F /  4.5 °C 38.3 °F /  3.5 °C 29.08in /  984.6hPa West 0.5mph /  0.8km/h 3mph /  4.8km/h 93% 0.00in /  0mm 0 W/m2
01:04 40.1 °F /  4.5 °C 38.3 °F /  3.5 °C 29.08in /  984.6hPa West 1.3mph /  2.1km/h 3mph /  4.8km/h 93% 0.00in /  0mm 0 W/m2
01:09 40.1 °F /  4.5 °C 38.3 °F /  3.5 °C 29.08in /  984.6hPa West 1.2mph /  1.9km/h 3mph /  4.8km/h 93% 0.00in /  0mm 0 W/m2
01:14 40.1 °F /  4.5 °C 38.3 °F /  3.5 °C 29.08in /  984.6hPa West 1.2mph /  1.9km/h 3mph /  4.8km/h 93% 0.00in /  0mm 0 W/m2
01:19 40.1 °F /  4.5 °C 38.3 °F /  3.5 °C 29.08in /  984.6hPa West 4.2mph /  6.8km/h 7mph /  11.3km/h 93% 0.00in /  0mm 0 W/m2
01:24 40.5 °F /  4.7 °C 38.8 °F /  3.8 °C 29.08in /  984.6hPa West 4.9mph /  7.9km/h 8mph /  12.9km/h 93.4% 0.00in /  0mm 0 W/m2
01:29 40.8 °F /  4.9 °C 39.1 °F /  3.9 °C 29.09in /  985hPa WNW 6mph /  9.7km/h 10mph /  16.1km/h 93.4% 0.00in /  0mm 0 W/m2
01:34 41.2 °F /  5.1 °C 39.6 °F /  4.2 °C 29.09in /  985hPa West 3.3mph /  5.3km/h 8mph /  12.9km/h 94% 0.00in /  0mm 0 W/m2
01:39 41.4 °F /  5.2 °C 39.8 °F /  4.3 °C 29.09in /  985hPa West 4.7mph /  7.6km/h 8mph /  12.9km/h 94% 0.00in /  0mm 0 W/m2
01:44 41.6 °F /  5.3 °C 39.9 °F /  4.4 °C 29.09in /  985hPa West 4.8mph /  7.7km/h 8mph /  12.9km/h 93.4% 0.00in /  0mm 0 W/m2
01:49 41.8 °F /  5.4 °C 40.2 °F /  4.6 °C 29.10in /  985.3hPa West 3.3mph /  5.3km/h 7mph /  11.3km/h 94% 0.00in /  0mm 0 W/m2
01:54 42.2 °F /  5.7 °C 40.4 °F /  4.7 °C 29.10in /  985.3hPa West 6mph /  9.7km/h 10mph /  16.1km/h 93.2% 0.00in /  0mm 0 W/m2
01:59 42.3 °F /  5.7 °C 40.6 °F /  4.8 °C 29.10in /  985.3hPa WSW 2.2mph /  3.5km/h 10mph /  16.1km/h 93.3% 0.00in /  0mm 0 W/m2
02:04 42.5 °F /  5.8 °C 40.7 °F /  4.8 °C 29.10in /  985.3hPa WSW 5.1mph /  8.2km/h 11mph /  17.7km/h 93% 0.01in /  0.25mm 0 W/m2
02:09 42.7 °F /  5.9 °C 40.9 °F /  4.9 °C 29.10in /  985.3hPa West 9mph /  14.5km/h 23mph /  37km/h 93% 0.01in /  0.25mm 0 W/m2
02:14 43 °F /  6.1 °C 41.2 °F /  5.1 °C 29.10in /  985.3hPa West 5.9mph /  9.5km/h 23mph /  37km/h 93% 0.01in /  0.25mm 0 W/m2
02:19 43.2 °F /  6.2 °C 41.3 °F /  5.2 °C 29.11in /  985.7hPa West 6.5mph /  10.5km/h 17mph /  27.4km/h 92.8% 0.01in /  0.25mm 0 W/m2
02:24 43.4 °F /  6.3 °C 41.3 °F /  5.2 °C 29.11in /  985.7hPa WSW 11.8mph /  19km/h 20mph /  32.2km/h 92.2% 0.01in /  0.25mm 0 W/m2
02:29 43.7 °F /  6.5 °C 41.4 °F /  5.2 °C 29.11in /  985.7hPa West 12mph /  19.3km/h 32mph /  51.5km/h 91.6% 0.01in /  0.25mm 0 W/m2
02:34 43.6 °F /  6.4 °C 40.9 °F /  4.9 °C 29.11in /  985.7hPa WSW 9.2mph /  14.8km/h 20mph /  32.2km/h 90.2% 0.01in /  0.25mm 0 W/m2
02:39 43.3 °F /  6.3 °C 40.6 °F /  4.8 °C 29.12in /  986hPa West 14.6mph /  23.5km/h 31mph /  49.9km/h 89.8% 0.01in /  0.25mm 0 W/m2
02:44 43.3 °F /  6.3 °C 40.2 °F /  4.6 °C 29.12in /  986hPa West 17.2mph /  27.7km/h 41mph /  66km/h 88.8% 0.01in /  0.25mm 0 W/m2
02:49 43.3 °F /  6.3 °C 39.9 °F /  4.4 °C 29.12in /  986hPa West 12.7mph /  20.4km/h 27mph /  43.5km/h 87.6% 0.01in /  0.25mm 0 W/m2
02:54 43.2 °F /  6.2 °C 39.5 °F /  4.2 °C 29.12in /  986hPa West 10.4mph /  16.7km/h 35mph /  56.3km/h 86.6% 0.01in /  0.25mm 0 W/m2
02:59 43.3 °F /  6.3 °C 39.3 °F /  4.1 °C 29.13in /  986.3hPa WNW 19.6mph /  31.5km/h 35mph /  56.3km/h 85.8% 0.01in /  0.25mm 0 W/m2
03:04 43.3 °F /  6.3 °C 39.2 °F /  4 °C 29.13in /  986.3hPa West 24.2mph /  38.9km/h 42mph /  67.6km/h 85% 0.01in /  0.25mm 0 W/m2
03:08 43.4 °F /  6.3 °C 38.9 °F /  3.8 °C 29.13in /  986.3hPa West 30.7mph /  49.4km/h 48mph /  77.2km/h 84% 0.00in /  0mm 0 W/m2
03:14 43.9 °F /  6.6 °C 38.8 °F /  3.8 °C 29.14in /  986.7hPa West 28.6mph /  46km/h 52mph /  83.7km/h 82.6% 0.00in /  0mm 0 W/m2
03:19 43.9 °F /  6.6 °C 38.5 °F /  3.6 °C 29.14in /  986.7hPa West 11.8mph /  19km/h 52mph /  83.7km/h 80.8% 0.00in /  0mm 0 W/m2
03:24 43.9 °F /  6.6 °C 38.1 °F /  3.4 °C 29.14in /  986.7hPa West 18.3mph /  29.5km/h 29mph /  46.7km/h 79.8% 0.00in /  0mm 0 W/m2
03:29 43.9 °F /  6.6 °C 37.4 °F /  3 °C 29.15in /  987hPa WNW 16.6mph /  26.7km/h 27mph /  43.5km/h 78% 0.00in /  0mm 0 W/m2
03:34 44 °F /  6.7 °C 37.1 °F /  2.8 °C 29.15in /  987hPa WNW 14.4mph /  23.2km/h 28mph /  45.1km/h 76.4% 0.00in /  0mm 0 W/m2
03:39 43.9 °F /  6.6 °C 36.9 °F /  2.7 °C 29.15in /  987hPa WNW 12.6mph /  20.3km/h 24mph /  38.6km/h 76% 0.00in /  0mm 0 W/m2
03:44 43.9 °F /  6.6 °C 36.9 °F /  2.7 °C 29.15in /  987hPa West 12.1mph /  19.5km/h 35mph /  56.3km/h 76% 0.00in /  0mm 0 W/m2
03:49 43.8 °F /  6.6 °C 36.8 °F /  2.7 °C 29.16in /  987.4hPa WNW 9.4mph /  15.1km/h 19mph /  30.6km/h 76% 0.00in /  0mm 0 W/m2
03:54 43.6 °F /  6.4 °C 36.6 °F /  2.6 °C 29.16in /  987.4hPa WNW 13.2mph /  21.2km/h 27mph /  43.5km/h 76% 0.00in /  0mm 0 W/m2
03:59 43.6 °F /  6.4 °C 36.6 °F /  2.6 °C 29.17in /  987.7hPa WNW 8mph /  12.9km/h 20mph /  32.2km/h 76% 0.00in /  0mm 0 W/m2
04:04 43.5 °F /  6.4 °C 36.5 °F /  2.5 °C 29.17in /  987.7hPa West 14mph /  22.5km/h 19mph /  30.6km/h 76% 0.00in /  0mm 0 W/m2
04:09 43.5 °F /  6.4 °C 36.3 °F /  2.4 °C 29.17in /  987.7hPa WNW 8.2mph /  13.2km/h 21mph /  33.8km/h 75.4% 0.00in /  0mm 0 W/m2
04:14 43.5 °F /  6.4 °C 35.9 °F /  2.2 °C 29.17in /  987.7hPa West 9.5mph /  15.3km/h 21mph /  33.8km/h 74.2% 0.00in /  0mm 0 W/m2
04:19 43.8 °F /  6.6 °C 35.8 °F /  2.1 °C 29.17in /  987.7hPa WSW 12.8mph /  20.6km/h 23mph /  37km/h 73.5% 0.00in /  0mm 0 W/m2
04:24 43.6 °F /  6.4 °C 35.5 °F /  1.9 °C 29.17in /  987.7hPa West 14.6mph /  23.5km/h 22mph /  35.4km/h 73% 0.00in /  0mm 0 W/m2
04:29 43.5 °F /  6.4 °C 35.4 °F /  1.9 °C 29.18in /  988hPa WSW 12.4mph /  20km/h 19mph /  30.6km/h 73% 0.00in /  0mm 0 W/m2
04:34 43.5 °F /  6.4 °C 35.6 °F /  2 °C 29.18in /  988hPa West 13.2mph /  21.2km/h 22mph /  35.4km/h 73.6% 0.00in /  0mm 0 W/m2
04:39 43.7 °F /  6.5 °C 35.6 °F /  2 °C 29.18in /  988hPa West 11mph /  17.7km/h 23mph /  37km/h 73% 0.00in /  0mm 0 W/m2
04:44 43.7 °F /  6.5 °C 35.6 °F /  2 °C 29.19in /  988.4hPa West 11.8mph /  19km/h 21mph /  33.8km/h 73% 0.00in /  0mm 0 W/m2
04:49 43.5 °F /  6.4 °C 35.4 °F /  1.9 °C 29.19in /  988.4hPa WNW 5.6mph /  9km/h 21mph /  33.8km/h 73% 0.00in /  0mm 0 W/m2
04:54 43.3 °F /  6.3 °C 35.5 °F /  1.9 °C 29.19in /  988.4hPa West 5.2mph /  8.4km/h 21mph /  33.8km/h 73.8% 0.00in /  0mm 0 W/m2
04:59 43.2 °F /  6.2 °C 35.4 °F /  1.9 °C 29.19in /  988.4hPa West 8.9mph /  14.3km/h 13mph /  20.9km/h 74% 0.00in /  0mm 0 W/m2
05:04 43.2 °F /  6.2 °C 35.5 °F /  1.9 °C 29.19in /  988.4hPa West 12.4mph /  20km/h 23mph /  37km/h 74% 0.00in /  0mm 0 W/m2
05:09 43.2 °F /  6.2 °C 35.5 °F /  1.9 °C 29.20in /  988.7hPa West 6.8mph /  10.9km/h 14mph /  22.5km/h 74% 0.00in /  0mm 0 W/m2
05:14 43.2 °F /  6.2 °C 35.4 °F /  1.9 °C 29.20in /  988.7hPa West 6.2mph /  10km/h 13mph /  20.9km/h 74% 0.00in /  0mm 0 W/m2
05:19 43.1 °F /  6.2 °C 35.4 °F /  1.9 °C 29.20in /  988.7hPa West 6.2mph /  10km/h 14mph /  22.5km/h 74.2% 0.00in /  0mm 0 W/m2
05:24 43.2 °F /  6.2 °C 35.8 °F /  2.1 °C 29.20in /  988.7hPa WSW 4.8mph /  7.7km/h 14mph /  22.5km/h 75% 0.00in /  0mm 0 W/m2
05:29 42.8 °F /  6 °C 35.4 °F /  1.9 °C 29.20in /  988.7hPa WSW 7.1mph /  11.4km/h 13mph /  20.9km/h 75% 0.00in /  0mm 0 W/m2
05:34 42.6 °F /  5.9 °C 35.6 °F /  2 °C 29.21in /  989.1hPa WSW 6.2mph /  10km/h 13mph /  20.9km/h 76% 0.00in /  0mm 0 W/m2
05:39 42.6 °F /  5.9 °C 35.6 °F /  2 °C 29.21in /  989.1hPa West 8mph /  12.9km/h 18mph /  29km/h 76% 0.00in /  0mm 0 W/m2
05:44 42.7 °F /  5.9 °C 36 °F /  2.2 °C 29.21in /  989.1hPa WSW 5.8mph /  9.3km/h 11mph /  17.7km/h 76.8% 0.00in /  0mm 0 W/m2
05:49 42.8 °F /  6 °C 36.1 °F /  2.3 °C 29.21in /  989.1hPa West 5.2mph /  8.4km/h 11mph /  17.7km/h 77% 0.00in /  0mm 0 W/m2
05:54 42.7 °F /  5.9 °C 36 °F /  2.2 °C 29.21in /  989.1hPa WSW 4.4mph /  7.1km/h 15mph /  24.1km/h 77% 0.00in /  0mm 0 W/m2
05:59 42.8 °F /  6 °C 36.1 °F /  2.3 °C 29.21in /  989.1hPa West 2.3mph /  3.7km/h 8mph /  12.9km/h 77% 0.00in /  0mm 0 W/m2
06:03 42.6 °F /  5.9 °C 36 °F /  2.2 °C 29.21in /  989.1hPa West 4.2mph /  6.8km/h 9mph /  14.5km/h 77% 0.00in /  0mm 0 W/m2
06:09 42.6 °F /  5.9 °C 36.3 °F /  2.4 °C 29.21in /  989.1hPa West 1.6mph /  2.6km/h 9mph /  14.5km/h 78% 0.00in /  0mm 0 W/m2
06:14 42.6 °F /  5.9 °C 36.3 °F /  2.4 °C 29.21in /  989.1hPa West 3mph /  4.8km/h 8mph /  12.9km/h 78% 0.00in /  0mm 0 W/m2
06:19 42.9 °F /  6.1 °C 36.6 °F /  2.6 °C 29.21in /  989.1hPa West 7.8mph /  12.6km/h 16mph /  25.7km/h 78% 0.01in /  0.25mm 0 W/m2
06:24 42.8 °F /  6 °C 36.7 °F /  2.6 °C 29.21in /  989.1hPa West 6.6mph /  10.6km/h 16mph /  25.7km/h 78.8% 0.02in /  0.51mm 0 W/m2
06:29 42.8 °F /  6 °C 36.7 °F /  2.6 °C 29.21in /  989.1hPa WSW 6.7mph /  10.8km/h 13mph /  20.9km/h 79% 0.02in /  0.51mm 0 W/m2
06:34 42.8 °F /  6 °C 37 °F /  2.8 °C 29.21in /  989.1hPa SW 4.2mph /  6.8km/h 16mph /  25.7km/h 80% 0.02in /  0.51mm 0 W/m2
06:39 43.2 °F /  6.2 °C 37.1 °F /  2.8 °C 29.21in /  989.1hPa SW 6.4mph /  10.3km/h 12mph /  19.3km/h 79.4% 0.02in /  0.51mm 0 W/m2
06:44 43.2 °F /  6.2 °C 37 °F /  2.8 °C 29.21in /  989.1hPa SW 1.4mph /  2.3km/h 6mph /  9.7km/h 79% 0.02in /  0.51mm 0 W/m2
06:49 43 °F /  6.1 °C 37.1 °F /  2.8 °C 29.21in /  989.1hPa SW 4.4mph /  7.1km/h 9mph /  14.5km/h 79.8% 0.02in /  0.51mm 0 W/m2
06:54 43 °F /  6.1 °C 37.2 °F /  2.9 °C 29.21in /  989.1hPa SW 4.1mph /  6.6km/h 9mph /  14.5km/h 80% 0.02in /  0.51mm 0 W/m2
06:59 43.2 °F /  6.2 °C 37.4 °F /  3 °C 29.21in /  989.1hPa SSW 3.6mph /  5.8km/h 8mph /  12.9km/h 80% 0.02in /  0.51mm 0 W/m2
07:04 43.3 °F /  6.3 °C 37.7 °F /  3.2 °C 29.21in /  989.1hPa SW 5.7mph /  9.2km/h 9mph /  14.5km/h 80.2% 0.02in /  0.51mm 0 W/m2
07:09 43.3 °F /  6.3 °C 37.9 °F /  3.3 °C 29.20in /  988.7hPa SSW 6.3mph /  10.1km/h 13mph /  20.9km/h 81% 0.02in /  0.51mm 0 W/m2
07:14 43.3 °F /  6.3 °C 38.1 °F /  3.4 °C 29.20in /  988.7hPa SSW 6.1mph /  9.8km/h 13mph /  20.9km/h 81.6% 0.02in /  0.51mm 0 W/m2
07:19 43.3 °F /  6.3 °C 38.3 °F /  3.5 °C 29.20in /  988.7hPa SSW 13mph /  20.9km/h 17mph /  27.4km/h 82% 0.02in /  0.51mm 0 W/m2
07:24 43.5 °F /  6.4 °C 38.5 °F /  3.6 °C 29.20in /  988.7hPa SW 7.8mph /  12.6km/h 17mph /  27.4km/h 82% 0.01in /  0.25mm 0 W/m2
07:29 43.5 °F /  6.4 °C 38.5 °F /  3.6 °C 29.20in /  988.7hPa SW 8.8mph /  14.2km/h 15mph /  24.1km/h 82% 0.00in /  0mm 0 W/m2
07:34 43.5 °F /  6.4 °C 38.5 °F /  3.6 °C 29.20in /  988.7hPa SW 7.6mph /  12.2km/h 15mph /  24.1km/h 82% 0.00in /  0mm 0 W/m2
07:39 43.5 °F /  6.4 °C 38.5 °F /  3.6 °C 29.19in /  988.4hPa SW 5.7mph /  9.2km/h 13mph /  20.9km/h 82% 0.00in /  0mm 0 W/m2
07:44 43.5 °F /  6.4 °C 38.5 °F /  3.6 °C 29.20in /  988.7hPa SW 8.6mph /  13.8km/h 13mph /  20.9km/h 82% 0.00in /  0mm 0 W/m2
07:49 43.6 °F /  6.4 °C 38.5 °F /  3.6 °C 29.20in /  988.7hPa SW 6.6mph /  10.6km/h 13mph /  20.9km/h 82% 0.00in /  0mm 0 W/m2
07:54 43.5 °F /  6.4 °C 38.6 °F /  3.7 °C 29.20in /  988.7hPa SSW 8.2mph /  13.2km/h 12mph /  19.3km/h 82.3% 0.00in /  0mm 0 W/m2
07:59 43.4 °F /  6.3 °C 38.6 °F /  3.7 °C 29.19in /  988.4hPa SSW 7mph /  11.3km/h 13mph /  20.9km/h 83% 0.00in /  0mm 0 W/m2
08:04 43.2 °F /  6.2 °C 38.7 °F /  3.7 °C 29.20in /  988.7hPa SW 8.2mph /  13.2km/h 14mph /  22.5km/h 84% 0.01in /  0.25mm 0 W/m2
08:09 43.2 °F /  6.2 °C 39 °F /  3.9 °C 29.20in /  988.7hPa SW 6.6mph /  10.6km/h 18mph /  29km/h 85% 0.02in /  0.51mm 0 W/m2
08:14 42.9 °F /  6.1 °C 38.9 °F /  3.8 °C 29.20in /  988.7hPa SW 7.8mph /  12.6km/h 16mph /  25.7km/h 85.8% 0.03in /  0.76mm 0 W/m2
08:19 42.6 °F /  5.9 °C 39 °F /  3.9 °C 29.20in /  988.7hPa SSW 9.3mph /  15km/h 17mph /  27.4km/h 86.8% 0.05in /  1.27mm 0 W/m2
08:24 42.5 °F /  5.8 °C 39 °F /  3.9 °C 29.20in /  988.7hPa WSW 7.6mph /  12.2km/h 15mph /  24.1km/h 87.4% 0.06in /  1.52mm 0 W/m2
08:29 42.4 °F /  5.8 °C 39.2 °F /  4 °C 29.20in /  988.7hPa WSW 3.8mph /  6.1km/h 9mph /  14.5km/h 88% 0.07in /  1.78mm 0 W/m2
08:33 42.3 °F /  5.7 °C 39.1 °F /  3.9 °C 29.20in /  988.7hPa WSW 4.7mph /  7.6km/h 9mph /  14.5km/h 88.3% 0.09in /  2.29mm 5 W/m2
08:39 42.3 °F /  5.7 °C 39.2 °F /  4 °C 29.20in /  988.7hPa WSW 4.6mph /  7.4km/h 8mph /  12.9km/h 89% 0.09in /  2.29mm 11 W/m2
08:44 42.3 °F /  5.7 °C 39.2 °F /  4 °C 29.20in /  988.7hPa WSW 4.4mph /  7.1km/h 10mph /  16.1km/h 89% 0.09in /  2.29mm 12 W/m2
08:49 42.3 °F /  5.7 °C 39.5 °F /  4.2 °C 29.20in /  988.7hPa WSW 5.7mph /  9.2km/h 11mph /  17.7km/h 89.8% 0.10in /  2.54mm 11 W/m2
08:54 42.3 °F /  5.7 °C 39.6 °F /  4.2 °C 29.20in /  988.7hPa SW 11.8mph /  19km/h 33mph /  53.1km/h 90% 0.10in /  2.54mm 12 W/m2
08:59 43.1 °F /  6.2 °C 40.3 °F /  4.6 °C 29.21in /  989.1hPa WSW 10.6mph /  17.1km/h 33mph /  53.1km/h 90% 0.10in /  2.54mm 14 W/m2
09:04 43.3 °F /  6.3 °C 40.6 °F /  4.8 °C 29.21in /  989.1hPa West 11.2mph /  18km/h 24mph /  38.6km/h 90% 0.10in /  2.54mm 21 W/m2
09:09 43.5 °F /  6.4 °C 40.8 °F /  4.9 °C 29.22in /  989.4hPa West 21mph /  33.8km/h 32mph /  51.5km/h 90% 0.09in /  2.29mm 26 W/m2
09:14 43.5 °F /  6.4 °C 40.5 °F /  4.7 °C 29.23in /  989.7hPa West 13.8mph /  22.2km/h 24mph /  38.6km/h 89% 0.08in /  2.03mm 25 W/m2
09:19 43.5 °F /  6.4 °C 40.4 °F /  4.7 °C 29.22in /  989.4hPa West 13mph /  20.9km/h 24mph /  38.6km/h 88.8% 0.06in /  1.52mm 28 W/m2
09:24 43.3 °F /  6.3 °C 40.1 °F /  4.5 °C 29.22in /  989.4hPa West 9.5mph /  15.3km/h 17mph /  27.4km/h 88% 0.06in /  1.52mm 39 W/m2
09:29 43.3 °F /  6.3 °C 40.1 °F /  4.5 °C 29.22in /  989.4hPa WNW 7.2mph /  11.6km/h 19mph /  30.6km/h 88% 0.05in /  1.27mm 65 W/m2
09:34 43.3 °F /  6.3 °C 40.1 °F /  4.5 °C 29.22in /  989.4hPa West 7.3mph /  11.7km/h 15mph /  24.1km/h 88% 0.02in /  0.51mm 67 W/m2
09:39 43.3 °F /  6.3 °C 40 °F /  4.4 °C 29.22in /  989.4hPa West 9.8mph /  15.8km/h 17mph /  27.4km/h 88% 0.02in /  0.51mm 23 W/m2
09:44 43.2 °F /  6.2 °C 39.9 °F /  4.4 °C 29.24in /  990.1hPa West 13.2mph /  21.2km/h 25mph /  40.2km/h 88% 0.02in /  0.51mm 12 W/m2
09:49 43.1 °F /  6.2 °C 39.9 °F /  4.4 °C 29.24in /  990.1hPa West 21.8mph /  35.1km/h 35mph /  56.3km/h 88.4% 0.02in /  0.51mm 39 W/m2
09:54 43 °F /  6.1 °C 39.2 °F /  4 °C 29.25in /  990.4hPa West 16.1mph /  25.9km/h 35mph /  56.3km/h 86.6% 0.01in /  0.25mm 42 W/m2
09:59 42.8 °F /  6 °C 38.6 °F /  3.7 °C 29.25in /  990.4hPa West 18.8mph /  30.3km/h 29mph /  46.7km/h 84.8% 0.01in /  0.25mm 121 W/m2
10:04 42.7 °F /  5.9 °C 37.8 °F /  3.2 °C 29.26in /  990.7hPa West 15.8mph /  25.4km/h 25mph /  40.2km/h 82.8% 0.01in /  0.25mm 62 W/m2
10:09 42.6 °F /  5.9 °C 37.5 °F /  3.1 °C 29.26in /  990.7hPa WNW 10.4mph /  16.7km/h 21mph /  33.8km/h 81.8% 0.01in /  0.25mm 62 W/m2
10:14 42.4 °F /  5.8 °C 37.1 °F /  2.8 °C 29.26in /  990.7hPa West 11.8mph /  19km/h 23mph /  37km/h 81.2% 0.01in /  0.25mm 70 W/m2
10:19 42.6 °F /  5.9 °C 37.2 °F /  2.9 °C 29.26in /  990.7hPa West 13.3mph /  21.4km/h 23mph /  37km/h 81% 0.01in /  0.25mm 74 W/m2
10:24 42.8 °F /  6 °C 37.4 °F /  3 °C 29.26in /  990.7hPa West 9.8mph /  15.8km/h 20mph /  32.2km/h 80.8% 0.01in /  0.25mm 77 W/m2
10:29 43.3 °F /  6.3 °C 37.4 °F /  3 °C 29.27in /  991.1hPa West 11.7mph /  18.8km/h 22mph /  35.4km/h 79.6% 0.01in /  0.25mm 84 W/m2
10:34 43.8 °F /  6.6 °C 37.1 °F /  2.8 °C 29.27in /  991.1hPa WSW 17.5mph /  28.2km/h 25mph /  40.2km/h 77.2% 0.01in /  0.25mm 93 W/m2
10:39 44.2 °F /  6.8 °C 36.5 °F /  2.5 °C 29.27in /  991.1hPa West 15mph /  24.1km/h 24mph /  38.6km/h 74% 0.01in /  0.25mm 98 W/m2
10:44 44.5 °F /  6.9 °C 36.2 °F /  2.3 °C 29.28in /  991.4hPa West 14.5mph /  23.3km/h 27mph /  43.5km/h 72.4% 0.01in /  0.25mm 111 W/m2
10:49 44.6 °F /  7 °C 36.1 °F /  2.3 °C 29.28in /  991.4hPa West 9.2mph /  14.8km/h 20mph /  32.2km/h 72% 0.00in /  0mm 105 W/m2
10:54 44.6 °F /  7 °C 36.1 °F /  2.3 °C 29.28in /  991.4hPa WNW 11.3mph /  18.2km/h 23mph /  37km/h 72% 0.00in /  0mm 111 W/m2
10:59 44.6 °F /  7 °C 36.1 °F /  2.3 °C 29.29in /  991.8hPa West 12mph /  19.3km/h 19mph /  30.6km/h 72% 0.00in /  0mm 97 W/m2
11:04 44.4 °F /  6.9 °C 36 °F /  2.2 °C 29.29in /  991.8hPa West 13.4mph /  21.6km/h 25mph /  40.2km/h 72% 0.00in /  0mm 53 W/m2
11:09 44.3 °F /  6.8 °C 35.9 °F /  2.2 °C 29.29in /  991.8hPa WNW 12mph /  19.3km/h 20mph /  32.2km/h 72.2% 0.00in /  0mm 135 W/m2
11:14 44.5 °F /  6.9 °C 36.3 °F /  2.4 °C 29.30in /  992.1hPa West 10.1mph /  16.3km/h 20mph /  32.2km/h 72.8% 0.00in /  0mm 139 W/m2
11:19 44.6 °F /  7 °C 36.5 °F /  2.5 °C 29.30in /  992.1hPa West 9.6mph /  15.4km/h 17mph /  27.4km/h 73% 0.00in /  0mm 141 W/m2
11:24 44.8 °F /  7.1 °C 36.7 °F /  2.6 °C 29.30in /  992.1hPa West 9.4mph /  15.1km/h 15mph /  24.1km/h 73% 0.00in /  0mm 141 W/m2
11:29 44.6 °F /  7 °C 36.5 °F /  2.5 °C 29.30in /  992.1hPa West 11.8mph /  19km/h 23mph /  37km/h 73% 0.00in /  0mm 98 W/m2
11:34 44.4 °F /  6.9 °C 36.3 °F /  2.4 °C 29.30in /  992.1hPa West 14.4mph /  23.2km/h 28mph /  45.1km/h 73% 0.00in /  0mm 79 W/m2
11:39 44.2 °F /  6.8 °C 36.1 °F /  2.3 °C 29.31in /  992.4hPa West 10.5mph /  16.9km/h 28mph /  45.1km/h 73% 0.00in /  0mm 79 W/m2
11:44 44.2 °F /  6.8 °C 36.5 °F /  2.5 °C 29.31in /  992.4hPa West 9.4mph /  15.1km/h 16mph /  25.7km/h 74% 0.00in /  0mm 74 W/m2
11:49 44.1 °F /  6.7 °C 36.5 °F /  2.5 °C 29.31in /  992.4hPa West 5.9mph /  9.5km/h 14mph /  22.5km/h 74.4% 0.00in /  0mm 176 W/m2
11:54 44.3 °F /  6.8 °C 36.9 °F /  2.7 °C 29.31in /  992.4hPa West 5.9mph /  9.5km/h 15mph /  24.1km/h 75% 0.00in /  0mm 225 W/m2
11:59 44.6 °F /  7 °C 37.1 °F /  2.8 °C 29.31in /  992.4hPa West 9mph /  14.5km/h 15mph /  24.1km/h 74.8% 0.00in /  0mm 186 W/m2
12:04 44.8 °F /  7.1 °C 37 °F /  2.8 °C 29.31in /  992.4hPa West 8mph /  12.9km/h 15mph /  24.1km/h 74% 0.00in /  0mm 146 W/m2
12:09 45 °F /  7.2 °C 37.2 °F /  2.9 °C 29.31in /  992.4hPa West 9.3mph /  15km/h 15mph /  24.1km/h 74% 0.00in /  0mm 130 W/m2
12:14 45.1 °F /  7.3 °C 37.2 °F /  2.9 °C 29.32in /  992.8hPa West 7.2mph /  11.6km/h 21mph /  33.8km/h 73.6% 0.00in /  0mm 100 W/m2
12:19 45.3 °F /  7.4 °C 37.1 °F /  2.8 °C 29.32in /  992.8hPa WSW 12.6mph /  20.3km/h 21mph /  33.8km/h 72.8% 0.00in /  0mm 97 W/m2
12:24 45.5 °F /  7.5 °C 36.8 °F /  2.7 °C 29.32in /  992.8hPa WNW 9.1mph /  14.6km/h 17mph /  27.4km/h 71.4% 0.00in /  0mm 100 W/m2
12:29 45.7 °F /  7.6 °C 36.9 °F /  2.7 °C 29.32in /  992.8hPa West 7.6mph /  12.2km/h 17mph /  27.4km/h 71% 0.00in /  0mm 72 W/m2
12:34 45.7 °F /  7.6 °C 36.9 °F /  2.7 °C 29.32in /  992.8hPa West 7.9mph /  12.7km/h 17mph /  27.4km/h 71% 0.00in /  0mm 79 W/m2
12:39 45.7 °F /  7.6 °C 36.9 °F /  2.7 °C 29.33in /  993.1hPa West 10.8mph /  17.4km/h 16mph /  25.7km/h 71% 0.00in /  0mm 84 W/m2
12:44 45.8 °F /  7.7 °C 36.7 °F /  2.6 °C 29.33in /  993.1hPa West 12mph /  19.3km/h 24mph /  38.6km/h 70.4% 0.00in /  0mm 58 W/m2
12:49 45.9 °F /  7.7 °C 36.9 °F /  2.7 °C 29.33in /  993.1hPa West 10mph /  16.1km/h 19mph /  30.6km/h 70.6% 0.00in /  0mm 128 W/m2
12:54 45.9 °F /  7.7 °C 36.8 °F /  2.7 °C 29.33in /  993.1hPa West 13.2mph /  21.2km/h 25mph /  40.2km/h 70.2% 0.00in /  0mm 114 W/m2
12:59 46 °F /  7.8 °C 36.9 °F /  2.7 °C 29.33in /  993.1hPa West 11.7mph /  18.8km/h 20mph /  32.2km/h 70% 0.00in /  0mm 149 W/m2
13:04 46 °F /  7.8 °C 36.9 °F /  2.7 °C 29.33in /  993.1hPa West 9.7mph /  15.6km/h 22mph /  35.4km/h 70% 0.00in /  0mm 100 W/m2
13:09 46 °F /  7.8 °C 36.9 °F /  2.7 °C 29.33in /  993.1hPa West 10.1mph /  16.3km/h 20mph /  32.2km/h 70% 0.00in /  0mm 95 W/m2
13:14 46 °F /  7.8 °C 36.7 °F /  2.6 °C 29.34in /  993.5hPa WNW 11.6mph /  18.7km/h 21mph /  33.8km/h 69.8% 0.00in /  0mm 178 W/m2
13:19 46.1 °F /  7.8 °C 36.6 °F /  2.6 °C 29.33in /  993.1hPa WNW 8mph /  12.9km/h 21mph /  33.8km/h 69% 0.00in /  0mm 146 W/m2
13:24 46.2 °F /  7.9 °C 36.5 °F /  2.5 °C 29.33in /  993.1hPa West 8.6mph /  13.8km/h 20mph /  32.2km/h 68.4% 0.00in /  0mm 141 W/m2
13:29 46.2 °F /  7.9 °C 36.1 °F /  2.3 °C 29.34in /  993.5hPa West 10mph /  16.1km/h 27mph /  43.5km/h 67.4% 0.00in /  0mm 139 W/m2
13:34 46.1 °F /  7.8 °C 36.7 °F /  2.6 °C 29.34in /  993.5hPa West 9mph /  14.5km/h 27mph /  43.5km/h 69.2% 0.00in /  0mm 77 W/m2
13:39 46 °F /  7.8 °C 37.3 °F /  2.9 °C 29.33in /  993.1hPa West 9mph /  14.5km/h 15mph /  24.1km/h 71.4% 0.00in /  0mm 148 W/m2
13:44 46.1 °F /  7.8 °C 37.7 °F /  3.2 °C 29.33in /  993.1hPa West 11.5mph /  18.5km/h 17mph /  27.4km/h 72% 0.00in /  0mm 163 W/m2
13:49 46.2 °F /  7.9 °C 37.7 °F /  3.2 °C 29.33in /  993.1hPa West 7mph /  11.3km/h 13mph /  20.9km/h 71.8% 0.00in /  0mm 111 W/m2
13:54 46.2 °F /  7.9 °C 37.8 °F /  3.2 °C 29.33in /  993.1hPa West 6.2mph /  10km/h 12mph /  19.3km/h 72% 0.00in /  0mm 118 W/m2
13:59 46.2 °F /  7.9 °C 37.8 °F /  3.2 °C 29.33in /  993.1hPa WSW 7.6mph /  12.2km/h 15mph /  24.1km/h 72% 0.00in /  0mm 105 W/m2
14:04 46.2 °F /  7.9 °C 37.9 °F /  3.3 °C 29.34in /  993.5hPa West 5.5mph /  8.9km/h 13mph /  20.9km/h 72.4% 0.00in /  0mm 114 W/m2
14:09 46.3 °F /  7.9 °C 38.3 °F /  3.5 °C 29.34in /  993.5hPa WSW 4mph /  6.4km/h 8mph /  12.9km/h 73% 0.00in /  0mm 91 W/m2
14:14 46.6 °F /  8.1 °C 38.5 °F /  3.6 °C 29.33in /  993.1hPa WSW 5.5mph /  8.9km/h 12mph /  19.3km/h 73% 0.00in /  0mm 123 W/m2
14:19 46.8 °F /  8.2 °C 38.7 °F /  3.7 °C 29.33in /  993.1hPa WSW 5.4mph /  8.7km/h 12mph /  19.3km/h 73.6% 0.00in /  0mm 113 W/m2
14:24 46.9 °F /  8.3 °C 39 °F /  3.9 °C 29.33in /  993.1hPa WSW 8.2mph /  13.2km/h 13mph /  20.9km/h 74% 0.00in /  0mm 91 W/m2
14:29 46.9 °F /  8.3 °C 38.9 °F /  3.8 °C 29.34in /  993.5hPa WSW 5.6mph /  9km/h 13mph /  20.9km/h 73.8% 0.00in /  0mm 74 W/m2
14:34 46.9 °F /  8.3 °C 38.8 °F /  3.8 °C 29.34in /  993.5hPa SW 7mph /  11.3km/h 23mph /  37km/h 73.2% 0.00in /  0mm 62 W/m2
14:39 46.8 °F /  8.2 °C 38.5 °F /  3.6 °C 29.34in /  993.5hPa West 5.7mph /  9.2km/h 23mph /  37km/h 73% 0.00in /  0mm 69 W/m2
14:44 46.7 °F /  8.2 °C 38.5 °F /  3.6 °C 29.34in /  993.5hPa WSW 8.7mph /  14km/h 13mph /  20.9km/h 73% 0.00in /  0mm 72 W/m2
14:49 46.6 °F /  8.1 °C 38.5 °F /  3.6 °C 29.34in /  993.5hPa WSW 8.4mph /  13.5km/h 19mph /  30.6km/h 73% 0.00in /  0mm 53 W/m2
14:54 46.5 °F /  8.1 °C 38.4 °F /  3.6 °C 29.34in /  993.5hPa WSW 19.2mph /  30.9km/h 29mph /  46.7km/h 73% 0.00in /  0mm 47 W/m2
14:59 46.2 °F /  7.9 °C 38.3 °F /  3.5 °C 29.34in /  993.5hPa WSW 9.4mph /  15.1km/h 29mph /  46.7km/h 73.6% 0.00in /  0mm 25 W/m2
15:04 46 °F /  7.8 °C 38.3 °F /  3.5 °C 29.34in /  993.5hPa WSW 7.8mph /  12.6km/h 21mph /  33.8km/h 74% 0.00in /  0mm 26 W/m2
15:09 45.9 °F /  7.7 °C 38.2 °F /  3.4 °C 29.35in /  993.8hPa WSW 6mph /  9.7km/h 15mph /  24.1km/h 74% 0.00in /  0mm 28 W/m2
15:14 45.8 °F /  7.7 °C 38.1 °F /  3.4 °C 29.35in /  993.8hPa WSW 9.4mph /  15.1km/h 21mph /  33.8km/h 74.2% 0.00in /  0mm 23 W/m2
15:19 45.6 °F /  7.6 °C 38.2 °F /  3.4 °C 29.35in /  993.8hPa WSW 9.2mph /  14.8km/h 13mph /  20.9km/h 75% 0.00in /  0mm 16 W/m2
15:24 45.5 °F /  7.5 °C 38.1 °F /  3.4 °C 29.35in /  993.8hPa WSW 6.5mph /  10.5km/h 13mph /  20.9km/h 75% 0.00in /  0mm 12 W/m2
15:29 45.3 °F /  7.4 °C 37.9 °F /  3.3 °C 29.35in /  993.8hPa SW 5mph /  8km/h 11mph /  17.7km/h 75% 0.00in /  0mm 12 W/m2
15:34 45.1 °F /  7.3 °C 37.8 °F /  3.2 °C 29.34in /  993.5hPa SW 3.3mph /  5.3km/h 11mph /  17.7km/h 75% 0.00in /  0mm 12 W/m2
15:39 45 °F /  7.2 °C 37.6 °F /  3.1 °C 29.34in /  993.5hPa SW 2.5mph /  4km/h 6mph /  9.7km/h 75% 0.00in /  0mm 12 W/m2
15:44 44.8 °F /  7.1 °C 37.4 °F /  3 °C 29.34in /  993.5hPa SW 3mph /  4.8km/h 6mph /  9.7km/h 75% 0.00in /  0mm 12 W/m2
15:49 44.8 °F /  7.1 °C 37.4 °F /  3 °C 29.34in /  993.5hPa SSW 5.2mph /  8.4km/h 8mph /  12.9km/h 75% 0.00in /  0mm 9 W/m2
15:54 44.7 °F /  7.1 °C 37.3 °F /  2.9 °C 29.34in /  993.5hPa SSW 2.8mph /  4.5km/h 7mph /  11.3km/h 75% 0.00in /  0mm 7 W/m2
15:59 44.6 °F /  7 °C 37.2 °F /  2.9 °C 29.34in /  993.5hPa SSW 2mph /  3.2km/h 4mph /  6.4km/h 75% 0.00in /  0mm 5 W/m2
16:04 44.3 °F /  6.8 °C 37 °F /  2.8 °C 29.33in /  993.1hPa SSW 1mph /  1.6km/h 5mph /  8km/h 75.2% 0.00in /  0mm 0 W/m2
16:09 44.1 °F /  6.7 °C 37 °F /  2.8 °C 29.34in /  993.5hPa SSW 5mph /  8km/h 10mph /  16.1km/h 76% 0.00in /  0mm 0 W/m2
16:14 44 °F /  6.7 °C 36.9 °F /  2.7 °C 29.34in /  993.5hPa SW 2.3mph /  3.7km/h 6mph /  9.7km/h 76% 0.00in /  0mm 0 W/m2
16:19 43.9 °F /  6.6 °C 36.9 °F /  2.7 °C 29.33in /  993.1hPa SW 2.8mph /  4.5km/h 6mph /  9.7km/h 76% 0.00in /  0mm 0 W/m2
16:24 43.8 °F /  6.6 °C 36.8 °F /  2.7 °C 29.33in /  993.1hPa SW 3mph /  4.8km/h 12mph /  19.3km/h 76% 0.00in /  0mm 0 W/m2
16:29 43.6 °F /  6.4 °C 36.6 °F /  2.6 °C 29.33in /  993.1hPa SSW 1.2mph /  1.9km/h 12mph /  19.3km/h 76% 0.00in /  0mm 0 W/m2
16:34 43.5 °F /  6.4 °C 36.8 °F /  2.7 °C 29.33in /  993.1hPa SSW 2.3mph /  3.7km/h 8mph /  12.9km/h 76.8% 0.00in /  0mm 0 W/m2
16:39 43.5 °F /  6.4 °C 36.5 °F /  2.5 °C 29.33in /  993.1hPa SSW 3.2mph /  5.1km/h 7mph /  11.3km/h 76% 0.00in /  0mm 0 W/m2
16:44 43.5 °F /  6.4 °C 36.5 °F /  2.5 °C 29.32in /  992.8hPa SW 2.3mph /  3.7km/h 7mph /  11.3km/h 76% 0.00in /  0mm 0 W/m2
16:49 43.6 °F /  6.4 °C 36.7 °F /  2.6 °C 29.32in /  992.8hPa SSW 4mph /  6.4km/h 9mph /  14.5km/h 76.4% 0.00in /  0mm 0 W/m2
16:54 43.9 °F /  6.6 °C 37 °F /  2.8 °C 29.32in /  992.8hPa SSW 4.1mph /  6.6km/h 9mph /  14.5km/h 76.4% 0.00in /  0mm 0 W/m2
16:59 44 °F /  6.7 °C 36.9 °F /  2.7 °C 29.32in /  992.8hPa SSW 4mph /  6.4km/h 10mph /  16.1km/h 76% 0.00in /  0mm 0 W/m2
17:04 44.2 °F /  6.8 °C 37.1 °F /  2.8 °C 29.31in /  992.4hPa South 4.5mph /  7.2km/h 8mph /  12.9km/h 76% 0.00in /  0mm 0 W/m2
17:09 44.2 °F /  6.8 °C 37.2 °F /  2.9 °C 29.31in /  992.4hPa SSW 3.9mph /  6.3km/h 8mph /  12.9km/h 76% 0.00in /  0mm 0 W/m2
17:14 44.4 °F /  6.9 °C 37.4 °F /  3 °C 29.31in /  992.4hPa SSW 4.6mph /  7.4km/h 9mph /  14.5km/h 76% 0.00in /  0mm 0 W/m2
17:19 44.4 °F /  6.9 °C 37.2 °F /  2.9 °C 29.30in /  992.1hPa South 4.8mph /  7.7km/h 16mph /  25.7km/h 75.6% 0.00in /  0mm 0 W/m2
17:24 44.4 °F /  6.9 °C 37 °F /  2.8 °C 29.30in /  992.1hPa SSW 2.6mph /  4.2km/h 9mph /  14.5km/h 75% 0.00in /  0mm 0 W/m2
17:29 44.6 °F /  7 °C 37.2 °F /  2.9 °C 29.29in /  991.8hPa SSW 3.6mph /  5.8km/h 7mph /  11.3km/h 75% 0.00in /  0mm 0 W/m2
17:34 44.6 °F /  7 °C 37.2 °F /  2.9 °C 29.28in /  991.4hPa SSW 2.6mph /  4.2km/h 8mph /  12.9km/h 75% 0.00in /  0mm 0 W/m2
17:39 44.7 °F /  7.1 °C 37.3 °F /  2.9 °C 29.28in /  991.4hPa South 2.7mph /  4.3km/h 7mph /  11.3km/h 75% 0.00in /  0mm 0 W/m2
17:44 44.7 °F /  7.1 °C 37.4 °F /  3 °C 29.28in /  991.4hPa South 2.9mph /  4.7km/h 7mph /  11.3km/h 75.2% 0.00in /  0mm 0 W/m2
17:49 44.7 °F /  7.1 °C 37.7 °F /  3.2 °C 29.27in /  991.1hPa South 2.5mph /  4km/h 7mph /  11.3km/h 76% 0.00in /  0mm 0 W/m2
17:54 44.8 °F /  7.1 °C 37.8 °F /  3.2 °C 29.26in /  990.7hPa SSE 3.8mph /  6.1km/h 9mph /  14.5km/h 76% 0.00in /  0mm 0 W/m2
17:59 45 °F /  7.2 °C 37.9 °F /  3.3 °C 29.26in /  990.7hPa SSE 6.8mph /  10.9km/h 12mph /  19.3km/h 76% 0.00in /  0mm 0 W/m2
18:03 45 °F /  7.2 °C 38 °F /  3.3 °C 29.25in /  990.4hPa South 5mph /  8km/h 12mph /  19.3km/h 76.3% 0.00in /  0mm 0 W/m2
18:09 45.1 °F /  7.3 °C 38.2 °F /  3.4 °C 29.25in /  990.4hPa South 10.4mph /  16.7km/h 16mph /  25.7km/h 77% 0.00in /  0mm 0 W/m2
18:14 45.1 °F /  7.3 °C 38.3 °F /  3.5 °C 29.24in /  990.1hPa South 5.3mph /  8.5km/h 12mph /  19.3km/h 77% 0.00in /  0mm 0 W/m2
18:19 45.1 °F /  7.3 °C 38.3 °F /  3.5 °C 29.24in /  990.1hPa SSE 6.2mph /  10km/h 12mph /  19.3km/h 77% 0.00in /  0mm 0 W/m2
18:24 45.2 °F /  7.3 °C 38.5 °F /  3.6 °C 29.23in /  989.7hPa South 7.8mph /  12.6km/h 14mph /  22.5km/h 77.2% 0.00in /  0mm 0 W/m2
18:29 45.3 °F /  7.4 °C 38.5 °F /  3.6 °C 29.23in /  989.7hPa South 8.9mph /  14.3km/h 15mph /  24.1km/h 77% 0.00in /  0mm 0 W/m2
18:34 45.5 °F /  7.5 °C 39 °F /  3.9 °C 29.23in /  989.7hPa South 4.7mph /  7.6km/h 11mph /  17.7km/h 78% 0.00in /  0mm 0 W/m2
18:39 45.7 °F /  7.6 °C 39.2 °F /  4 °C 29.22in /  989.4hPa South 7mph /  11.3km/h 18mph /  29km/h 78% 0.00in /  0mm 0 W/m2
18:43 45.8 °F /  7.7 °C 39.3 °F /  4.1 °C 29.22in /  989.4hPa South 6.8mph /  10.9km/h 18mph /  29km/h 78% 0.00in /  0mm 0 W/m2
18:49 46.1 °F /  7.8 °C 39.6 °F /  4.2 °C 29.22in /  989.4hPa South 7.2mph /  11.6km/h 12mph /  19.3km/h 78% 0.00in /  0mm 0 W/m2
18:54 46.5 °F /  8.1 °C 40 °F /  4.4 °C 29.22in /  989.4hPa South 6mph /  9.7km/h 13mph /  20.9km/h 78% 0.00in /  0mm 0 W/m2
18:59 46.8 °F /  8.2 °C 40.3 °F /  4.6 °C 29.21in /  989.1hPa SSE 5.8mph /  9.3km/h 20mph /  32.2km/h 78.2% 0.00in /  0mm 0 W/m2
19:04 46.8 °F /  8.2 °C 40.7 °F /  4.8 °C 29.21in /  989.1hPa South 5mph /  8km/h 14mph /  22.5km/h 79.4% 0.01in /  0.25mm 0 W/m2
19:09 46.5 °F /  8.1 °C 41 °F /  5 °C 29.21in /  989.1hPa South 6mph /  9.7km/h 15mph /  24.1km/h 81% 0.02in /  0.51mm 0 W/m2
19:14 46.3 °F /  7.9 °C 41.4 °F /  5.2 °C 29.21in /  989.1hPa SSW 4mph /  6.4km/h 13mph /  20.9km/h 83% 0.04in /  1.02mm 0 W/m2
19:19 46.3 °F /  7.9 °C 41.9 °F /  5.5 °C 29.21in /  989.1hPa SSW 11.8mph /  19km/h 18mph /  29km/h 84.5% 0.05in /  1.27mm 0 W/m2
19:24 46.2 °F /  7.9 °C 42 °F /  5.6 °C 29.21in /  989.1hPa SW 9.6mph /  15.4km/h 18mph /  29km/h 85.2% 0.06in /  1.52mm 0 W/m2
19:29 46.2 °F /  7.9 °C 42.3 °F /  5.7 °C 29.21in /  989.1hPa SW 6.8mph /  10.9km/h 13mph /  20.9km/h 86% 0.08in /  2.03mm 0 W/m2
19:34 46.1 °F /  7.8 °C 42.4 °F /  5.8 °C 29.21in /  989.1hPa South 8.4mph /  13.5km/h 20mph /  32.2km/h 86.8% 0.10in /  2.54mm 0 W/m2
19:39 46.3 °F /  7.9 °C 42.9 °F /  6.1 °C 29.22in /  989.4hPa SW 8mph /  12.9km/h 20mph /  32.2km/h 88% 0.12in /  3.05mm 0 W/m2
19:44 46.5 °F /  8.1 °C 43.3 °F /  6.3 °C 29.21in /  989.1hPa SW 7.5mph /  12.1km/h 16mph /  25.7km/h 88.5% 0.13in /  3.3mm 0 W/m2
19:49 46.5 °F /  8.1 °C 43.4 °F /  6.3 °C 29.21in /  989.1hPa SW 9.6mph /  15.4km/h 17mph /  27.4km/h 89% 0.14in /  3.56mm 0 W/m2
19:54 46.6 °F /  8.1 °C 43.5 °F /  6.4 °C 29.20in /  988.7hPa SW 10.4mph /  16.7km/h 17mph /  27.4km/h 89% 0.14in /  3.56mm 0 W/m2
19:59 46.6 °F /  8.1 °C 43.5 °F /  6.4 °C 29.20in /  988.7hPa SW 7mph /  11.3km/h 13mph /  20.9km/h 89% 0.15in /  3.81mm 0 W/m2
20:04 46.6 °F /  8.1 °C 43.5 °F /  6.4 °C 29.19in /  988.4hPa SW 7.2mph /  11.6km/h 14mph /  22.5km/h 89% 0.15in /  3.81mm 0 W/m2
20:09 46.6 °F /  8.1 °C 43.5 °F /  6.4 °C 29.19in /  988.4hPa SW 6.3mph /  10.1km/h 12mph /  19.3km/h 89% 0.13in /  3.3mm 0 W/m2
20:14 46.6 °F /  8.1 °C 43.5 °F /  6.4 °C 29.18in /  988hPa SW 5mph /  8km/h 11mph /  17.7km/h 89% 0.12in /  3.05mm 0 W/m2
20:19 46.7 °F /  8.2 °C 43.6 °F /  6.4 °C 29.19in /  988.4hPa WSW 8mph /  12.9km/h 12mph /  19.3km/h 89% 0.10in /  2.54mm 0 W/m2
20:24 46.6 °F /  8.1 °C 43.5 °F /  6.4 °C 29.18in /  988hPa SW 6mph /  9.7km/h 13mph /  20.9km/h 89% 0.09in /  2.29mm 0 W/m2
20:29 46.6 °F /  8.1 °C 43.7 °F /  6.5 °C 29.18in /  988hPa SW 4.1mph /  6.6km/h 9mph /  14.5km/h 89.4% 0.07in /  1.78mm 0 W/m2
20:34 46.6 °F /  8.1 °C 43.9 °F /  6.6 °C 29.18in /  988hPa SW 6mph /  9.7km/h 11mph /  17.7km/h 90% 0.06in /  1.52mm 0 W/m2
20:39 46.6 °F /  8.1 °C 43.9 °F /  6.6 °C 29.18in /  988hPa SW 6.1mph /  9.8km/h 9mph /  14.5km/h 90% 0.04in /  1.02mm 0 W/m2
20:44 46.5 °F /  8.1 °C 43.8 °F /  6.6 °C 29.18in /  988hPa WSW 4.8mph /  7.7km/h 12mph /  19.3km/h 90% 0.03in /  0.76mm 0 W/m2
20:49 46.6 °F /  8.1 °C 43.9 °F /  6.6 °C 29.17in /  987.7hPa SW 7.6mph /  12.2km/h 14mph /  22.5km/h 90% 0.02in /  0.51mm 0 W/m2
20:54 46.6 °F /  8.1 °C 43.9 °F /  6.6 °C 29.16in /  987.4hPa SW 7.2mph /  11.6km/h 14mph /  22.5km/h 90% 0.01in /  0.25mm 0 W/m2
20:59 46.4 °F /  8 °C 43.7 °F /  6.5 °C 29.16in /  987.4hPa SW 7mph /  11.3km/h 11mph /  17.7km/h 90% 0.01in /  0.25mm 0 W/m2
21:03 46.4 °F /  8 °C 43.7 °F /  6.5 °C 29.15in /  987hPa SSW 4.2mph /  6.8km/h 11mph /  17.7km/h 90% 0.00in /  0mm 0 W/m2
21:09 46.2 °F /  7.9 °C 43.5 °F /  6.4 °C 29.15in /  987hPa SW 5.4mph /  8.7km/h 10mph /  16.1km/h 90% 0.00in /  0mm 0 W/m2
21:14 46.3 °F /  7.9 °C 43.6 °F /  6.4 °C 29.15in /  987hPa SSW 7.2mph /  11.6km/h 12mph /  19.3km/h 90% 0.00in /  0mm 0 W/m2
21:19 46.2 °F /  7.9 °C 43.5 °F /  6.4 °C 29.15in /  987hPa SSW 5.1mph /  8.2km/h 10mph /  16.1km/h 90% 0.00in /  0mm 0 W/m2
21:24 46.2 °F /  7.9 °C 43.5 °F /  6.4 °C 29.15in /  987hPa SSW 4.1mph /  6.6km/h 9mph /  14.5km/h 90% 0.00in /  0mm 0 W/m2
21:29 46.2 °F /  7.9 °C 43.5 °F /  6.4 °C 29.15in /  987hPa SSW 4.1mph /  6.6km/h 9mph /  14.5km/h 90% 0.00in /  0mm 0 W/m2
21:34 46.2 °F /  7.9 °C 43.5 °F /  6.4 °C 29.14in /  986.7hPa SW 3.2mph /  5.1km/h 8mph /  12.9km/h 90% 0.00in /  0mm 0 W/m2
21:39 46 °F /  7.8 °C 43.1 °F /  6.2 °C 29.13in /  986.3hPa SSW 1.7mph /  2.7km/h 8mph /  12.9km/h 89.2% 0.00in /  0mm 0 W/m2
21:44 46 °F /  7.8 °C 43 °F /  6.1 °C 29.13in /  986.3hPa SSW 2.4mph /  3.9km/h 7mph /  11.3km/h 89% 0.00in /  0mm 0 W/m2
21:49 46 °F /  7.8 °C 43 °F /  6.1 °C 29.14in /  986.7hPa SSW 1mph /  1.6km/h 6mph /  9.7km/h 89% 0.00in /  0mm 0 W/m2
21:54 46.1 °F /  7.8 °C 43.1 °F /  6.2 °C 29.13in /  986.3hPa SSW 7mph /  11.3km/h 11mph /  17.7km/h 89% 0.00in /  0mm 0 W/m2
21:59 46.1 °F /  7.8 °C 43.1 °F /  6.2 °C 29.14in /  986.7hPa SSW 6.2mph /  10km/h 14mph /  22.5km/h 89% 0.00in /  0mm 0 W/m2
22:04 46.1 °F /  7.8 °C 43 °F /  6.1 °C 29.13in /  986.3hPa SW 5.3mph /  8.5km/h 10mph /  16.1km/h 88.8% 0.01in /  0.25mm 0 W/m2
22:09 46 °F /  7.8 °C 42.9 °F /  6.1 °C 29.14in /  986.7hPa SW 3.9mph /  6.3km/h 8mph /  12.9km/h 88.8% 0.01in /  0.25mm 0 W/m2
22:14 46 °F /  7.8 °C 43 °F /  6.1 °C 29.14in /  986.7hPa WSW 4.4mph /  7.1km/h 7mph /  11.3km/h 89% 0.01in /  0.25mm 0 W/m2
22:19 46 °F /  7.8 °C 43 °F /  6.1 °C 29.14in /  986.7hPa SW 4.9mph /  7.9km/h 7mph /  11.3km/h 89% 0.01in /  0.25mm 0 W/m2
22:24 46 °F /  7.8 °C 43 °F /  6.1 °C 29.14in /  986.7hPa SSW 9.2mph /  14.8km/h 15mph /  24.1km/h 89% 0.01in /  0.25mm 0 W/m2
22:29 46 °F /  7.8 °C 43 °F /  6.1 °C 29.14in /  986.7hPa SSW 5.2mph /  8.4km/h 15mph /  24.1km/h 89% 0.01in /  0.25mm 0 W/m2
22:34 46 °F /  7.8 °C 42.9 °F /  6.1 °C 29.13in /  986.3hPa SW 9.5mph /  15.3km/h 19mph /  30.6km/h 88.8% 0.01in /  0.25mm 0 W/m2
22:39 46.1 °F /  7.8 °C 42.7 °F /  5.9 °C 29.13in /  986.3hPa SW 9mph /  14.5km/h 18mph /  29km/h 87.8% 0.01in /  0.25mm 0 W/m2
22:44 46.2 °F /  7.9 °C 42.5 °F /  5.8 °C 29.13in /  986.3hPa SW 5.6mph /  9km/h 18mph /  29km/h 86.6% 0.01in /  0.25mm 0 W/m2
22:49 46.2 °F /  7.9 °C 42.1 °F /  5.6 °C 29.13in /  986.3hPa SSW 6.7mph /  10.8km/h 12mph /  19.3km/h 85.6% 0.01in /  0.25mm 0 W/m2
22:54 46.2 °F /  7.9 °C 41.7 °F /  5.4 °C 29.13in /  986.3hPa SW 8mph /  12.9km/h 13mph /  20.9km/h 84% 0.01in /  0.25mm 0 W/m2
22:59 46.3 °F /  7.9 °C 41.5 °F /  5.3 °C 29.13in /  986.3hPa SW 9mph /  14.5km/h 15mph /  24.1km/h 83% 0.01in /  0.25mm 0 W/m2
23:04 46.2 °F /  7.9 °C 41.3 °F /  5.2 °C 29.14in /  986.7hPa SW 9.4mph /  15.1km/h 16mph /  25.7km/h 82.6% 0.00in /  0mm 0 W/m2
23:09 46.2 °F /  7.9 °C 41.2 °F /  5.1 °C 29.14in /  986.7hPa SW 10mph /  16.1km/h 20mph /  32.2km/h 82.4% 0.00in /  0mm 0 W/m2
23:14 46.2 °F /  7.9 °C 41.4 °F /  5.2 °C 29.14in /  986.7hPa SW 8.2mph /  13.2km/h 16mph /  25.7km/h 83% 0.00in /  0mm 0 W/m2
23:19 46.1 °F /  7.8 °C 41.5 °F /  5.3 °C 29.14in /  986.7hPa WSW 10.5mph /  16.9km/h 17mph /  27.4km/h 83.8% 0.00in /  0mm 0 W/m2
23:24 46 °F /  7.8 °C 41.5 °F /  5.3 °C 29.14in /  986.7hPa SW 9.4mph /  15.1km/h 14mph /  22.5km/h 84% 0.01in /  0.25mm 0 W/m2
23:29 46 °F /  7.8 °C 41.3 °F /  5.2 °C 29.14in /  986.7hPa SW 12.8mph /  20.6km/h 18mph /  29km/h 83.4% 0.01in /  0.25mm 0 W/m2
23:34 46 °F /  7.8 °C 40.6 °F /  4.8 °C 29.13in /  986.3hPa SW 6.6mph /  10.6km/h 15mph /  24.1km/h 81.6% 0.01in /  0.25mm 0 W/m2
23:39 45.9 °F /  7.7 °C 40.3 °F /  4.6 °C 29.12in /  986hPa SW 5mph /  8km/h 9mph /  14.5km/h 81% 0.01in /  0.25mm 0 W/m2
23:44 45.8 °F /  7.7 °C 40.2 °F /  4.6 °C 29.13in /  986.3hPa SW 3.7mph /  6km/h 8mph /  12.9km/h 81% 0.01in /  0.25mm 0 W/m2
23:49 45.5 °F /  7.5 °C 40.1 °F /  4.5 °C 29.13in /  986.3hPa SW 5.6mph /  9km/h 12mph /  19.3km/h 81.6% 0.01in /  0.25mm 0 W/m2
23:54 45.3 °F /  7.4 °C 40.1 °F /  4.5 °C 29.14in /  986.7hPa SW 8mph /  12.9km/h 13mph /  20.9km/h 82% 0.01in /  0.25mm 0 W/m2
23:59 45.3 °F /  7.4 °C 39.9 °F /  4.4 °C 29.14in /  986.7hPa SW 9.2mph /  14.8km/h 18mph /  29km/h 81% 0.01in /  0.25mm 0 W/m2
Bath Spa Weather
Compliments of Weather Underground - 2 mb